createdAt,value
2022-08-27T00:02:25.289Z,7.22
2022-08-27T00:04:53.912Z,7.10
2022-08-27T00:07:22.371Z,7.43
2022-08-27T00:09:51.179Z,7.30
2022-08-27T00:12:19.631Z,7.45
2022-08-27T00:14:48.334Z,7.57
2022-08-27T00:17:17.556Z,7.70
2022-08-27T00:19:47.935Z,8.25
2022-08-27T00:22:16.354Z,8.20
2022-08-27T00:24:48.669Z,7.90
2022-08-27T00:27:18.929Z,8.38
2022-08-27T00:29:47.819Z,8.10
2022-08-27T00:32:16.796Z,7.65
2022-08-27T00:34:45.513Z,7.68
2022-08-27T00:37:15.925Z,7.32
2022-08-27T00:39:44.904Z,7.20
2022-08-27T00:42:13.432Z,7.68
2022-08-27T00:44:42.196Z,8.15
2022-08-27T00:47:15.009Z,7.90
2022-08-27T00:49:48.224Z,7.65
2022-08-27T00:52:27.831Z,8.15
2022-08-27T00:55:01.859Z,8.32
2022-08-27T00:57:32.432Z,8.00
2022-08-27T01:00:01.564Z,8.77
2022-08-27T01:02:31.799Z,7.82
2022-08-27T01:05:04.414Z,7.90
2022-08-27T01:07:37.970Z,8.63
2022-08-27T01:10:11.773Z,9.13
2022-08-27T01:12:40.467Z,9.10
2022-08-27T01:15:14.929Z,9.15
2022-08-27T01:17:48.900Z,9.05
2022-08-27T01:20:22.676Z,9.45
2022-08-27T01:23:00.264Z,9.27
2022-08-27T01:25:31.629Z,8.88
2022-08-27T01:28:02.818Z,8.63
2022-08-27T01:30:32.793Z,9.25
2022-08-27T01:33:01.502Z,9.15
2022-08-27T01:35:30.847Z,9.02
2022-08-27T01:38:03.366Z,9.18
2022-08-27T01:40:37.356Z,8.98
2022-08-27T01:43:07.200Z,8.90
2022-08-27T01:45:38.446Z,8.85
2022-08-27T01:48:09.180Z,8.75
2022-08-27T01:50:40.407Z,9.07
2022-08-27T01:53:12.613Z,8.60
2022-08-27T01:55:47.714Z,8.77
2022-08-27T01:58:18.656Z,9.50
2022-08-27T02:00:51.948Z,8.88
2022-08-27T02:03:27.667Z,8.60
2022-08-27T02:05:56.226Z,9.50
2022-08-27T02:08:25.505Z,9.43
2022-08-27T02:10:55.191Z,10.18
2022-08-27T02:13:24.369Z,10.65
2022-08-27T02:15:52.992Z,10.85
2022-08-27T02:18:22.319Z,11.60
2022-08-27T02:20:51.573Z,10.55
2022-08-27T02:23:20.586Z,10.15
2022-08-27T02:25:49.304Z,10.23
2022-08-27T02:28:19.124Z,10.60
2022-08-27T02:30:48.061Z,10.13
2022-08-27T02:33:17.032Z,10.32
2022-08-27T02:35:46.424Z,10.27
2022-08-27T02:38:15.154Z,10.38
2022-08-27T02:40:44.159Z,10.18
2022-08-27T02:43:16.085Z,10.63
2022-08-27T02:45:55.778Z,10.48
2022-08-27T02:48:25.598Z,9.25
2022-08-27T02:50:55.091Z,9.93
2022-08-27T02:53:23.935Z,8.88
2022-08-27T02:55:53.071Z,19.10
2022-08-27T02:58:21.979Z,11.55
2022-08-27T03:00:50.763Z,10.75
2022-08-27T03:03:21.164Z,9.55
2022-08-27T03:05:49.731Z,8.15
2022-08-27T03:08:18.812Z,9.00
2022-08-27T03:10:47.228Z,8.85
2022-08-27T03:13:15.912Z,8.80
2022-08-27T03:15:44.328Z,8.68
2022-08-27T03:18:22.024Z,8.75
2022-08-27T03:20:54.296Z,9.43
2022-08-27T03:23:26.548Z,10.55
2022-08-27T03:25:57.723Z,11.13
2022-08-27T03:28:28.983Z,10.18
2022-08-27T03:31:00.459Z,9.05
2022-08-27T03:33:31.149Z,9.27
2022-08-27T03:36:01.406Z,8.40
2022-08-27T03:38:30.701Z,7.65
2022-08-27T03:40:59.360Z,8.20
2022-08-27T03:43:28.928Z,7.28
2022-08-27T03:46:01.940Z,8.15
2022-08-27T03:48:31.954Z,7.63
2022-08-27T03:51:06.952Z,8.40
2022-08-27T03:53:36.287Z,6.80
2022-08-27T03:56:06.683Z,8.10
2022-08-27T03:58:35.552Z,8.50
2022-08-27T04:01:05.077Z,8.68
2022-08-27T04:03:35.735Z,8.15
2022-08-27T04:06:06.377Z,8.30
2022-08-27T04:11:07.041Z,7.95
2022-08-27T04:13:35.484Z,8.00
2022-08-27T04:16:06.847Z,7.95
2022-08-27T04:18:35.509Z,8.63
2022-08-27T04:21:12.032Z,8.48
2022-08-27T04:23:41.782Z,7.38
2022-08-27T04:26:12.420Z,7.78
2022-08-27T04:28:41.431Z,7.75
2022-08-27T04:31:16.474Z,7.13
2022-08-27T04:33:51.146Z,6.72
2022-08-27T04:36:22.252Z,6.53
2022-08-27T04:38:51.471Z,6.88
2022-08-27T04:41:23.233Z,7.22
2022-08-27T04:43:54.248Z,7.45
2022-08-27T04:46:24.074Z,9.85
2022-08-27T04:48:54.416Z,6.57
2022-08-27T04:51:24.463Z,6.60
2022-08-27T04:53:53.940Z,7.18
2022-08-27T04:56:24.041Z,6.53
2022-08-27T04:58:53.957Z,7.45
2022-08-27T05:01:25.380Z,7.53
2022-08-27T05:03:55.440Z,7.43
2022-08-27T05:06:26.159Z,7.22
2022-08-27T05:08:55.653Z,7.57
2022-08-27T05:11:26.292Z,7.70
2022-08-27T05:13:55.224Z,7.60
2022-08-27T05:16:24.712Z,13.98
2022-08-27T05:18:54.551Z,8.18
2022-08-27T05:21:27.699Z,7.60
2022-08-27T05:23:59.043Z,7.55
2022-08-27T05:26:27.898Z,12.70
2022-08-27T05:28:57.183Z,8.30
2022-08-27T05:31:25.902Z,7.93
2022-08-27T05:33:56.444Z,8.20
2022-08-27T05:36:30.274Z,8.35
2022-08-27T05:39:01.180Z,8.30
2022-08-27T05:41:34.330Z,8.80
2022-08-27T05:44:24.128Z,8.90
2022-08-27T05:46:55.524Z,8.82
2022-08-27T05:49:24.201Z,8.15
2022-08-27T05:51:54.114Z,8.38
2022-08-27T05:54:24.055Z,8.73
2022-08-27T05:56:52.785Z,8.73
2022-08-27T05:59:38.980Z,7.93
2022-08-27T06:02:07.855Z,9.25
2022-08-27T06:04:37.362Z,8.63
2022-08-27T06:07:10.832Z,8.90
2022-08-27T06:09:40.097Z,8.70
2022-08-27T06:12:10.008Z,9.05
2022-08-27T06:14:38.748Z,8.67
2022-08-27T06:17:08.030Z,9.45
2022-08-27T06:19:36.840Z,8.38
2022-08-27T06:22:09.983Z,9.45
2022-08-27T06:24:41.179Z,8.98
2022-08-27T06:27:12.636Z,8.85
2022-08-27T06:29:42.307Z,8.65
2022-08-27T06:32:12.513Z,9.40
2022-08-27T06:34:41.555Z,8.80
2022-08-27T06:37:12.147Z,9.10
2022-08-27T06:39:40.744Z,8.98
2022-08-27T06:42:13.517Z,9.60
2022-08-27T06:44:42.673Z,8.27
2022-08-27T06:47:11.888Z,10.07
2022-08-27T06:49:43.803Z,9.43
2022-08-27T06:52:16.829Z,9.43
2022-08-27T06:54:46.073Z,10.27
2022-08-27T06:57:14.555Z,10.55
2022-08-27T06:59:44.460Z,10.50
2022-08-27T07:02:13.030Z,10.27
2022-08-27T07:04:42.259Z,11.07
2022-08-27T07:07:13.475Z,10.93
2022-08-27T07:09:43.853Z,10.23
2022-08-27T07:12:12.657Z,11.80
2022-08-27T07:14:41.211Z,11.82
2022-08-27T07:17:11.272Z,11.85
2022-08-27T07:19:46.952Z,11.18
2022-08-27T07:22:15.343Z,11.25
2022-08-27T07:24:46.070Z,11.77
2022-08-27T07:27:14.539Z,11.95
2022-08-27T07:29:43.192Z,12.23
2022-08-27T07:32:11.711Z,12.25
2022-08-27T07:34:40.628Z,11.73
2022-08-27T07:37:09.605Z,12.70
2022-08-27T07:39:38.677Z,12.48
2022-08-27T07:42:26.527Z,12.10
2022-08-27T07:44:55.240Z,11.63
2022-08-27T07:47:23.749Z,11.45
2022-08-27T07:49:54.030Z,11.60
2022-08-27T07:52:26.425Z,12.15
2022-08-27T07:54:55.728Z,11.25
2022-08-27T07:57:25.570Z,11.05
2022-08-27T07:59:54.297Z,10.60
2022-08-27T08:02:23.224Z,10.45
2022-08-27T08:04:52.064Z,12.50
2022-08-27T08:07:21.056Z,10.88
2022-08-27T08:09:49.849Z,10.73
2022-08-27T08:12:18.635Z,10.70
2022-08-27T08:14:58.015Z,10.32
2022-08-27T08:17:27.029Z,9.68
2022-08-27T08:20:18.477Z,10.20
2022-08-27T08:22:48.739Z,9.32
2022-08-27T08:25:17.400Z,8.93
2022-08-27T08:27:46.493Z,8.18
2022-08-27T08:30:16.560Z,9.00
2022-08-27T08:32:45.658Z,8.55
2022-08-27T08:35:14.411Z,8.95
2022-08-27T08:37:44.750Z,8.40
2022-08-27T08:40:31.768Z,8.98
2022-08-27T08:43:01.642Z,8.30
2022-08-27T08:45:35.103Z,7.43
2022-08-27T08:48:08.040Z,8.20
2022-08-27T08:50:45.265Z,8.80
2022-08-27T08:53:21.280Z,8.63
2022-08-27T08:55:53.930Z,8.55
2022-08-27T08:58:39.820Z,9.20
2022-08-27T09:01:11.280Z,9.02
2022-08-27T09:03:42.263Z,8.65
2022-08-27T09:06:20.904Z,8.40
2022-08-27T09:08:49.527Z,8.45
2022-08-27T09:11:24.805Z,8.52
2022-08-27T09:13:59.628Z,9.10
2022-08-27T09:16:30.294Z,9.02
2022-08-27T09:18:59.207Z,9.18
2022-08-27T09:21:36.807Z,8.98
2022-08-27T09:24:11.883Z,8.55
2022-08-27T09:26:42.609Z,20.02
2022-08-27T09:29:17.156Z,8.25
2022-08-27T09:31:50.360Z,8.52
2022-08-27T09:34:18.776Z,8.27
2022-08-27T09:36:53.790Z,7.60
2022-08-27T09:39:29.890Z,8.40
2022-08-27T09:41:58.554Z,8.05
2022-08-27T09:44:27.146Z,7.88
2022-08-27T09:46:59.962Z,8.43
2022-08-27T09:49:28.723Z,9.07
2022-08-27T09:51:58.625Z,8.40
2022-08-27T09:54:43.512Z,9.05
2022-08-27T09:57:15.811Z,8.40
2022-08-27T09:59:54.019Z,8.25
2022-08-27T10:02:26.326Z,14.00
2022-08-27T10:04:59.200Z,9.73
2022-08-27T10:07:39.103Z,7.90
2022-08-27T10:10:14.665Z,8.05
2022-08-27T10:12:52.745Z,8.00
2022-08-27T10:15:22.701Z,7.95
2022-08-27T10:18:04.344Z,8.35
2022-08-27T10:20:47.469Z,16.42
2022-08-27T10:23:23.647Z,8.10
2022-08-27T10:25:59.380Z,7.20
2022-08-27T10:28:39.711Z,7.72
2022-08-27T10:31:19.095Z,7.45
2022-08-27T10:34:04.944Z,14.57
2022-08-27T10:36:45.810Z,8.15
2022-08-27T10:39:23.719Z,7.95
2022-08-27T10:42:01.287Z,8.17
2022-08-27T10:44:46.344Z,22.92
2022-08-27T10:47:32.023Z,7.70
2022-08-27T10:50:07.306Z,7.43
2022-08-27T10:52:43.276Z,7.03
2022-08-27T10:55:17.331Z,6.38
2022-08-27T10:58:14.715Z,6.15
2022-08-27T11:00:51.395Z,8.07
2022-08-27T11:03:32.283Z,6.80
2022-08-27T11:06:11.537Z,6.38
2022-08-27T11:08:44.122Z,7.40
2022-08-27T11:14:09.747Z,28.48
2022-08-27T11:16:45.756Z,8.93
2022-08-27T11:19:20.486Z,7.95
2022-08-27T11:22:02.481Z,8.45
2022-08-27T11:24:40.271Z,7.32
2022-08-27T11:27:09.802Z,7.57
2022-08-27T11:29:45.933Z,7.72
2022-08-27T11:32:23.692Z,7.93
2022-08-27T11:35:00.690Z,8.02
2022-08-27T11:38:00.897Z,7.50
2022-08-27T11:40:42.768Z,8.93
2022-08-27T11:43:16.904Z,13.73
2022-08-27T11:45:58.652Z,8.80
2022-08-27T11:48:30.052Z,7.38
2022-08-27T11:51:02.693Z,7.43
2022-08-27T11:53:51.816Z,27.80
2022-08-27T11:56:36.841Z,32.90
2022-08-27T11:59:23.505Z,8.02
2022-08-27T12:01:54.282Z,7.50
2022-08-27T12:04:37.046Z,7.05
2022-08-27T12:07:08.495Z,6.57
2022-08-27T12:09:58.094Z,7.18
2022-08-27T12:12:37.946Z,8.23
2022-08-27T12:15:11.524Z,17.60
2022-08-27T12:17:45.484Z,39.10
2022-08-27T12:20:25.167Z,9.18
2022-08-27T12:23:25.387Z,7.40
2022-08-27T12:26:00.506Z,6.95
2022-08-27T12:28:29.666Z,6.20
2022-08-27T12:30:58.772Z,6.65
2022-08-27T12:33:33.325Z,6.40
2022-08-27T12:36:11.015Z,5.97
2022-08-27T12:38:50.558Z,6.07
2022-08-27T12:41:31.963Z,6.75
2022-08-27T12:44:06.316Z,6.70
2022-08-27T12:46:37.774Z,9.73
2022-08-27T12:49:12.783Z,6.30
2022-08-27T12:51:58.264Z,5.85
2022-08-27T12:54:40.513Z,5.75
2022-08-27T12:57:16.827Z,6.00
2022-08-27T12:59:58.634Z,6.85
2022-08-27T13:02:50.001Z,6.10
2022-08-27T13:05:22.204Z,5.70
2022-08-27T13:07:52.735Z,5.70
2022-08-27T13:10:26.208Z,6.03
2022-08-27T13:13:05.881Z,6.00
2022-08-27T13:15:35.458Z,6.47
2022-08-27T13:18:07.726Z,5.47
2022-08-27T13:20:39.105Z,5.65
2022-08-27T13:23:19.816Z,5.72
2022-08-27T13:26:00.387Z,5.43
2022-08-27T13:28:31.940Z,5.22
2022-08-27T13:31:01.507Z,4.88
2022-08-27T13:33:33.465Z,4.97
2022-08-27T13:36:04.073Z,5.55
2022-08-27T13:38:35.234Z,5.28
2022-08-27T13:41:10.086Z,5.20
2022-08-27T13:43:42.374Z,5.20
2022-08-27T13:46:15.487Z,5.00
2022-08-27T13:48:45.628Z,5.05
2022-08-27T13:51:16.277Z,5.45
2022-08-27T13:54:05.812Z,4.78
2022-08-27T13:56:37.187Z,6.90
2022-08-27T13:59:12.651Z,5.45
2022-08-27T14:01:44.772Z,5.22
2022-08-27T14:04:22.956Z,5.97
2022-08-27T14:06:52.220Z,5.18
2022-08-27T14:09:25.326Z,5.20
2022-08-27T14:12:01.125Z,5.57
2022-08-27T14:14:32.164Z,5.55
2022-08-27T14:17:02.259Z,6.68
2022-08-27T14:19:36.059Z,6.25
2022-08-27T14:22:06.172Z,6.10
2022-08-27T14:24:34.838Z,5.75
2022-08-27T14:27:09.012Z,5.65
2022-08-27T14:29:39.403Z,5.95
2022-08-27T14:32:08.334Z,5.97
2022-08-27T14:34:37.332Z,6.50
2022-08-27T14:37:06.411Z,5.82
2022-08-27T14:39:35.256Z,6.40
2022-08-27T14:42:04.180Z,6.35
2022-08-27T14:44:34.119Z,6.55
2022-08-27T14:47:09.399Z,6.10
2022-08-27T14:49:41.782Z,6.03
2022-08-27T14:52:11.648Z,6.13
2022-08-27T14:54:40.573Z,5.85
2022-08-27T14:57:23.727Z,6.10
2022-08-27T14:59:52.431Z,6.30
2022-08-27T15:02:23.298Z,6.90
2022-08-27T15:04:52.337Z,8.00
2022-08-27T15:07:20.953Z,6.47
2022-08-27T15:09:52.461Z,6.30
2022-08-27T15:12:25.906Z,6.05
2022-08-27T15:14:58.672Z,6.03
2022-08-27T15:17:34.554Z,5.80
2022-08-27T15:20:06.793Z,6.15
2022-08-27T15:22:37.133Z,6.65
2022-08-27T15:25:09.126Z,6.97
2022-08-27T15:27:39.253Z,7.93
2022-08-27T15:30:11.671Z,7.30
2022-08-27T15:32:44.091Z,11.90
2022-08-27T15:35:15.729Z,10.95
2022-08-27T15:37:45.312Z,17.63
2022-08-27T15:40:16.117Z,15.68
2022-08-27T15:42:45.021Z,9.75
2022-08-27T15:45:15.044Z,11.85
2022-08-27T15:50:13.963Z,21.35
2022-08-27T15:52:43.369Z,14.73
2022-08-27T15:55:19.153Z,12.18
2022-08-27T15:57:48.613Z,10.82
2022-08-27T16:00:19.001Z,8.40
2022-08-27T16:02:50.684Z,8.18
2022-08-27T16:05:21.901Z,7.60
2022-08-27T16:07:51.169Z,7.50
2022-08-27T16:10:20.030Z,24.25
2022-08-27T16:12:49.094Z,15.65
2022-08-27T16:15:18.186Z,12.95
2022-08-27T16:17:50.742Z,11.45
2022-08-27T16:22:45.865Z,7.72
2022-08-27T16:25:18.519Z,7.53
2022-08-27T16:27:48.824Z,7.57
2022-08-27T16:30:18.010Z,8.37
2022-08-27T16:32:51.067Z,7.50
2022-08-27T16:35:23.958Z,8.13
2022-08-27T16:37:54.061Z,8.15
2022-08-27T16:42:53.021Z,21.27
2022-08-27T16:45:24.306Z,12.52
2022-08-27T16:48:12.617Z,13.40
2022-08-27T16:50:42.276Z,16.33
2022-08-27T16:53:14.148Z,10.25
2022-08-27T16:55:44.384Z,12.02
2022-08-27T16:58:20.522Z,10.27
2022-08-27T17:00:53.281Z,10.05
2022-08-27T17:05:50.624Z,9.73
2022-08-27T17:08:21.465Z,10.07
2022-08-27T17:10:56.504Z,10.15
2022-08-27T17:13:28.346Z,24.30
2022-08-27T17:15:58.027Z,17.35
2022-08-27T17:18:28.264Z,14.48
2022-08-27T17:21:01.945Z,11.23
2022-08-27T17:23:34.987Z,11.65
2022-08-27T17:26:05.160Z,14.25
2022-08-27T17:28:34.117Z,11.25
2022-08-27T17:33:35.118Z,10.25
2022-08-27T17:36:06.113Z,15.68
2022-08-27T17:38:37.556Z,12.40
2022-08-27T17:41:17.480Z,16.02
2022-08-27T17:43:49.468Z,21.67
2022-08-27T17:46:19.056Z,19.92
2022-08-27T17:48:47.548Z,17.43
2022-08-27T17:51:20.024Z,14.30
2022-08-27T17:53:51.227Z,11.45
2022-08-27T17:56:22.372Z,11.00
2022-08-27T17:58:53.973Z,11.20
2022-08-27T18:01:28.475Z,11.38
2022-08-27T18:03:58.121Z,10.70
2022-08-27T18:08:55.296Z,16.98
2022-08-27T18:11:25.349Z,15.82
2022-08-27T18:14:02.682Z,17.35
2022-08-27T18:16:35.013Z,13.23
2022-08-27T18:19:06.783Z,11.98
2022-08-27T18:21:37.488Z,12.55
2022-08-27T18:26:53.740Z,11.68
2022-08-27T18:29:22.593Z,12.02
2022-08-27T18:31:51.241Z,11.02
2022-08-27T18:36:45.554Z,10.43
2022-08-27T18:39:14.617Z,11.85
2022-08-27T18:41:44.552Z,13.18
2022-08-27T18:46:46.569Z,12.23
2022-08-27T18:49:15.656Z,12.32
2022-08-27T18:51:49.402Z,11.35
2022-08-27T18:54:21.913Z,11.60
2022-08-27T18:56:52.234Z,11.50
2022-08-27T18:59:25.866Z,11.85
2022-08-27T19:02:15.069Z,12.07
2022-08-27T19:04:44.506Z,12.20
2022-08-27T19:07:13.424Z,13.18
2022-08-27T19:09:42.977Z,12.98
2022-08-27T19:12:14.699Z,12.80
2022-08-27T19:14:47.635Z,15.80
2022-08-27T19:17:24.382Z,14.13
2022-08-27T19:19:54.452Z,15.60
2022-08-27T19:22:23.164Z,12.43
2022-08-27T19:24:54.367Z,11.30
2022-08-27T19:27:26.128Z,11.15
2022-08-27T19:29:56.240Z,10.82
2022-08-27T19:32:24.797Z,10.85
2022-08-27T19:34:54.626Z,11.75
2022-08-27T19:37:26.520Z,12.30
2022-08-27T19:39:55.057Z,11.20
2022-08-27T19:42:25.069Z,11.68
2022-08-27T19:44:53.401Z,11.63
2022-08-27T19:47:26.004Z,11.13
2022-08-27T19:49:56.255Z,9.82
2022-08-27T19:52:25.173Z,12.20
2022-08-27T19:55:12.460Z,14.98
2022-08-27T20:00:12.044Z,10.52
2022-08-27T20:02:40.980Z,10.43
2022-08-27T20:05:18.696Z,9.98
2022-08-27T20:07:49.817Z,9.93
2022-08-27T20:12:46.897Z,9.30
2022-08-27T20:18:00.344Z,10.00
2022-08-27T20:20:29.928Z,14.85
2022-08-27T20:22:59.665Z,17.63
2022-08-27T20:25:30.009Z,15.88
2022-08-27T20:27:58.666Z,12.97
2022-08-27T20:30:30.030Z,10.48
2022-08-27T20:33:00.029Z,13.20
2022-08-27T20:35:29.977Z,10.85
2022-08-27T20:37:58.354Z,11.65
2022-08-27T20:40:30.123Z,10.68
2022-08-27T20:42:58.849Z,9.98
2022-08-27T20:45:30.908Z,10.95
2022-08-27T20:48:04.153Z,10.60
2022-08-27T20:50:33.724Z,9.10
2022-08-27T20:53:02.460Z,7.10
2022-08-27T20:55:31.180Z,6.65
2022-08-27T20:58:17.481Z,5.72
2022-08-27T21:00:46.153Z,6.00
2022-08-27T21:03:16.135Z,5.43
2022-08-27T21:05:48.629Z,5.72
2022-08-27T21:08:19.696Z,5.22
2022-08-27T21:10:50.975Z,5.50
2022-08-27T21:13:20.661Z,4.63
2022-08-27T21:15:54.578Z,4.97
2022-08-27T21:18:29.733Z,4.28
2022-08-27T21:20:59.115Z,3.90
2022-08-27T21:23:28.475Z,3.67
2022-08-27T21:25:56.852Z,3.05
2022-08-27T21:28:25.539Z,2.90
2022-08-27T21:30:54.536Z,2.72
2022-08-27T21:33:23.431Z,2.80
2022-08-27T21:35:53.408Z,3.35
2022-08-27T21:38:22.403Z,2.97
2022-08-27T21:40:50.956Z,2.63
2022-08-27T21:43:19.850Z,2.58
2022-08-27T21:45:48.333Z,2.50
2022-08-27T21:48:17.055Z,2.58
2022-08-27T21:50:45.511Z,2.65
2022-08-27T21:53:17.009Z,2.47
2022-08-27T21:55:46.365Z,2.47
2022-08-27T21:58:15.566Z,2.58
2022-08-27T22:00:46.200Z,2.50
2022-08-27T22:03:17.164Z,2.40
2022-08-27T22:05:47.272Z,2.40
2022-08-27T22:08:19.948Z,2.60
2022-08-27T22:10:52.711Z,2.80
2022-08-27T22:13:22.100Z,2.92
2022-08-27T22:15:51.671Z,2.78
2022-08-27T22:18:20.240Z,3.00
2022-08-27T22:20:52.723Z,2.80
2022-08-27T22:23:22.824Z,3.00
2022-08-27T22:25:52.068Z,2.85
2022-08-27T22:28:20.763Z,2.50
2022-08-27T22:30:49.188Z,2.50
2022-08-27T22:33:19.024Z,2.40
2022-08-27T22:35:48.227Z,2.60
2022-08-27T22:38:16.963Z,2.80
2022-08-27T22:40:47.029Z,2.50
2022-08-27T22:43:16.677Z,2.88
2022-08-27T22:45:45.066Z,2.67
2022-08-27T22:48:14.287Z,2.80
2022-08-27T22:50:43.081Z,2.90
2022-08-27T22:53:12.057Z,3.40
2022-08-27T22:55:41.048Z,2.90
2022-08-27T22:58:11.354Z,2.40
2022-08-27T23:03:11.721Z,2.42
2022-08-27T23:05:42.213Z,2.63
2022-08-27T23:08:13.709Z,2.80
2022-08-27T23:10:44.194Z,2.90
2022-08-27T23:15:43.315Z,3.08
2022-08-27T23:18:13.399Z,3.35
2022-08-27T23:20:41.987Z,3.45
2022-08-27T23:23:10.855Z,3.58
2022-08-27T23:25:56.893Z,3.40
2022-08-27T23:28:27.608Z,3.42
2022-08-27T23:33:25.081Z,3.85
2022-08-27T23:35:53.649Z,3.15
2022-08-27T23:38:22.705Z,3.55
2022-08-27T23:40:52.204Z,3.47
2022-08-27T23:43:22.613Z,3.50
2022-08-27T23:45:52.570Z,3.38
2022-08-27T23:48:21.564Z,3.40
2022-08-27T23:50:49.954Z,3.88
2022-08-27T23:53:19.378Z,3.47
2022-08-27T23:58:29.709Z,3.65
